createdAt,value
2023-03-03T00:01:58.277Z,1.60
2023-03-03T00:04:25.238Z,1.70
2023-03-03T00:06:52.171Z,1.70
2023-03-03T00:09:19.156Z,1.60
2023-03-03T00:11:56.250Z,1.40
2023-03-03T00:14:33.396Z,1.20
2023-03-03T00:17:24.571Z,1.30
2023-03-03T00:19:54.984Z,1.40
2023-03-03T00:22:40.788Z,1.20
2023-03-03T00:25:35.067Z,1.20
2023-03-03T00:28:22.686Z,1.30
2023-03-03T00:30:51.446Z,1.50
2023-03-03T00:33:48.450Z,1.60
2023-03-03T00:36:15.230Z,1.40
2023-03-03T00:38:43.866Z,1.40
2023-03-03T00:41:27.631Z,1.30
2023-03-03T00:43:55.024Z,1.60
2023-03-03T00:46:25.663Z,1.40
2023-03-03T00:48:52.824Z,1.60
2023-03-03T00:51:30.838Z,1.70
2023-03-03T00:53:59.603Z,1.50
2023-03-03T00:56:28.420Z,1.30
2023-03-03T00:58:55.312Z,1.20
2023-03-03T01:01:23.984Z,1.40
2023-03-03T01:03:51.102Z,1.60
2023-03-03T01:06:18.327Z,1.60
2023-03-03T01:08:48.284Z,1.40
2023-03-03T01:11:29.086Z,1.40
2023-03-03T01:13:57.097Z,1.40
2023-03-03T01:16:24.240Z,1.60
2023-03-03T01:18:51.250Z,1.80
2023-03-03T01:21:19.510Z,1.70
2023-03-03T01:23:46.508Z,1.60
2023-03-03T01:26:13.793Z,1.60
2023-03-03T01:28:40.780Z,1.70
2023-03-03T01:31:11.557Z,1.70
2023-03-03T01:33:39.233Z,1.70
2023-03-03T01:36:07.677Z,1.70
2023-03-03T01:38:40.124Z,1.90
2023-03-03T01:41:07.131Z,1.90
2023-03-03T01:43:34.353Z,1.60
2023-03-03T01:46:01.408Z,1.30
2023-03-03T01:48:44.638Z,1.10
2023-03-03T01:51:35.839Z,1.20
2023-03-03T01:54:14.608Z,1.00
2023-03-03T01:56:44.375Z,0.90
2023-03-03T01:59:24.427Z,0.90
2023-03-03T02:01:54.638Z,1.00
2023-03-03T02:04:25.908Z,0.90
2023-03-03T02:07:07.111Z,0.80
2023-03-03T02:10:05.330Z,0.60
2023-03-03T02:12:41.778Z,0.60
2023-03-03T02:15:34.500Z,0.80
2023-03-03T02:18:16.973Z,0.70
2023-03-03T02:21:22.426Z,0.60
2023-03-03T02:24:25.998Z,0.60
2023-03-03T02:26:53.068Z,0.70
2023-03-03T02:29:20.078Z,0.60
2023-03-03T02:31:49.694Z,0.60
2023-03-03T02:34:17.832Z,0.70
2023-03-03T02:36:44.752Z,0.50
2023-03-03T02:39:24.720Z,0.60
2023-03-03T02:42:03.480Z,0.60
2023-03-03T02:44:33.964Z,0.60
2023-03-03T02:47:01.811Z,0.70
2023-03-03T02:49:39.483Z,0.80
2023-03-03T02:52:10.924Z,1.10
2023-03-03T02:54:39.275Z,1.10
2023-03-03T02:57:08.773Z,1.10
2023-03-03T02:59:35.919Z,1.10
2023-03-03T03:02:04.576Z,1.00
2023-03-03T03:04:34.428Z,0.90
2023-03-03T03:07:01.475Z,1.10
2023-03-03T03:09:31.246Z,0.90
2023-03-03T03:12:02.409Z,1.20
2023-03-03T03:14:29.649Z,1.20
2023-03-03T03:16:56.845Z,1.30
2023-03-03T03:19:23.752Z,1.00
2023-03-03T03:21:50.999Z,0.90
2023-03-03T03:24:18.360Z,0.80
2023-03-03T03:26:45.347Z,0.60
2023-03-03T03:29:14.813Z,0.40
2023-03-03T03:31:43.931Z,0.50
2023-03-03T03:34:11.187Z,0.30
2023-03-03T03:36:39.852Z,0.30
2023-03-03T03:39:07.093Z,0.40
2023-03-03T03:41:34.035Z,0.50
2023-03-03T03:44:00.993Z,0.60
2023-03-03T03:46:28.007Z,0.40
2023-03-03T03:48:54.924Z,0.40
2023-03-03T03:51:21.873Z,0.40
2023-03-03T03:53:48.992Z,0.30
2023-03-03T03:56:16.098Z,0.40
2023-03-03T03:58:43.022Z,0.30
2023-03-03T04:01:12.393Z,0.20
2023-03-03T04:03:39.388Z,0.10
2023-03-03T04:06:06.625Z,0.20
2023-03-03T04:08:33.727Z,0.30
2023-03-03T04:11:00.707Z,0.30
2023-03-03T04:13:29.106Z,0.20
2023-03-03T04:15:56.085Z,0.20
2023-03-03T04:18:23.079Z,0.10
2023-03-03T04:20:52.494Z,0.20
2023-03-03T04:23:19.612Z,0.10
2023-03-03T04:25:48.290Z,0.10
2023-03-03T04:28:17.506Z,0.20
2023-03-03T04:30:44.830Z,0.20
2023-03-03T04:33:14.146Z,0.20
2023-03-03T04:35:41.136Z,0.20
2023-03-03T04:38:08.131Z,0.20
2023-03-03T04:40:35.271Z,0.00
2023-03-03T04:43:02.157Z,0.10
2023-03-03T04:45:29.117Z,0.30
2023-03-03T04:47:59.256Z,0.40
2023-03-03T04:50:26.216Z,0.20
2023-03-03T04:52:53.499Z,0.20
2023-03-03T04:55:23.603Z,0.10
2023-03-03T04:57:52.938Z,0.30
2023-03-03T05:00:21.314Z,0.30
2023-03-03T05:02:49.396Z,0.40
2023-03-03T05:05:16.718Z,0.30
2023-03-03T05:07:43.842Z,0.20
2023-03-03T05:10:11.855Z,0.20
2023-03-03T05:12:39.184Z,0.30
2023-03-03T05:15:08.333Z,0.20
2023-03-03T05:17:35.313Z,0.20
2023-03-03T05:20:02.997Z,0.30
2023-03-03T05:22:30.047Z,0.30
2023-03-03T05:24:57.756Z,0.30
2023-03-03T05:27:24.936Z,0.30
2023-03-03T05:29:51.908Z,0.30
2023-03-03T05:32:19.127Z,0.10
2023-03-03T05:34:46.320Z,0.10
2023-03-03T05:37:13.408Z,0.10
2023-03-03T05:39:40.409Z,0.10
2023-03-03T05:42:07.515Z,0.00
2023-03-03T05:44:34.474Z,0.10
2023-03-03T05:47:01.362Z,0.10
2023-03-03T05:49:28.457Z,0.00
2023-03-03T05:51:55.535Z,-0.10
2023-03-03T05:54:22.714Z,0.00
2023-03-03T05:56:50.583Z,-0.10
2023-03-03T05:59:21.052Z,0.10
2023-03-03T06:01:48.073Z,0.20
2023-03-03T06:04:15.308Z,0.00
2023-03-03T06:06:42.414Z,0.00
2023-03-03T06:09:09.422Z,0.10
2023-03-03T06:11:37.935Z,0.10
2023-03-03T06:14:04.810Z,0.00
2023-03-03T06:16:31.746Z,0.00
2023-03-03T06:18:58.921Z,0.00
2023-03-03T06:21:26.364Z,0.10
2023-03-03T06:23:53.301Z,0.00
2023-03-03T06:26:20.393Z,0.00
2023-03-03T06:28:48.413Z,-0.10
2023-03-03T06:31:15.453Z,0.00
2023-03-03T06:33:42.630Z,0.20
2023-03-03T06:36:09.722Z,0.30
2023-03-03T06:38:36.664Z,0.10
2023-03-03T06:41:07.296Z,0.10
2023-03-03T06:43:37.215Z,0.00
2023-03-03T06:46:06.405Z,-0.10
2023-03-03T06:48:34.426Z,-0.10
2023-03-03T06:51:19.206Z,0.00
2023-03-03T06:53:46.205Z,-0.20
2023-03-03T06:56:13.398Z,0.00
2023-03-03T06:58:40.574Z,0.20
2023-03-03T07:01:17.750Z,0.20
2023-03-03T07:03:48.562Z,0.10
2023-03-03T07:06:26.589Z,0.10
2023-03-03T07:08:55.071Z,0.20
2023-03-03T07:11:24.475Z,0.00
2023-03-03T07:13:55.506Z,0.10
2023-03-03T07:16:28.223Z,0.00
2023-03-03T07:19:08.234Z,0.20
2023-03-03T07:21:38.778Z,0.10
2023-03-03T07:24:30.347Z,0.20
2023-03-03T07:27:06.227Z,0.10
2023-03-03T07:29:34.640Z,0.00
2023-03-03T07:32:03.065Z,0.20
2023-03-03T07:34:48.018Z,0.50
2023-03-03T07:37:35.978Z,0.40
2023-03-03T07:40:39.001Z,0.30
2023-03-03T07:43:58.919Z,0.10
2023-03-03T07:46:45.104Z,0.10
2023-03-03T07:49:35.986Z,0.00
2023-03-03T07:52:38.269Z,0.00
2023-03-03T07:55:39.975Z,0.00
2023-03-03T07:58:19.794Z,0.00
2023-03-03T08:01:29.496Z,-0.10
2023-03-03T08:03:58.333Z,0.10
2023-03-03T08:06:51.557Z,0.00
2023-03-03T08:09:25.841Z,0.10
2023-03-03T08:12:39.989Z,0.10
2023-03-03T08:15:31.025Z,0.10
2023-03-03T08:18:03.983Z,0.30
2023-03-03T08:21:02.915Z,0.30
2023-03-03T08:23:30.876Z,0.40
2023-03-03T08:25:57.875Z,0.60
2023-03-03T08:28:24.999Z,0.60
2023-03-03T08:31:02.663Z,0.50
2023-03-03T08:33:36.725Z,0.70
2023-03-03T08:36:04.245Z,0.70
2023-03-03T08:38:31.291Z,0.70
2023-03-03T08:40:58.354Z,0.70
2023-03-03T08:43:25.449Z,0.70
2023-03-03T08:46:00.885Z,0.70
2023-03-03T08:48:30.079Z,0.70
2023-03-03T08:50:57.666Z,0.70
2023-03-03T08:53:25.272Z,0.80
2023-03-03T08:55:54.428Z,0.80
2023-03-03T08:58:33.467Z,0.90
2023-03-03T09:07:07.323Z,0.70
2023-03-03T09:25:37.436Z,0.80
2023-03-03T09:28:33.132Z,1.00
2023-03-03T09:31:17.289Z,1.20
2023-03-03T09:33:52.142Z,1.30
2023-03-03T09:36:36.538Z,1.40
2023-03-03T09:39:25.382Z,1.20
2023-03-03T09:42:26.057Z,1.10
2023-03-03T09:45:09.824Z,1.20
2023-03-03T09:48:26.314Z,1.10
2023-03-03T09:51:05.010Z,1.20
2023-03-03T09:54:33.911Z,1.20
2023-03-03T09:58:11.261Z,1.10
2023-03-03T10:00:55.591Z,1.30
2023-03-03T10:04:11.948Z,1.30
2023-03-03T10:07:39.207Z,1.50
2023-03-03T10:10:25.385Z,1.40
2023-03-03T10:13:32.925Z,1.40
2023-03-03T10:20:52.769Z,1.60
2023-03-03T10:24:01.704Z,1.70
2023-03-03T10:27:23.017Z,1.60
2023-03-03T10:30:42.595Z,1.60
2023-03-03T10:33:28.204Z,1.70
2023-03-03T10:36:15.417Z,1.70
2023-03-03T10:39:48.285Z,1.80
2023-03-03T10:42:41.082Z,1.80
2023-03-03T10:45:50.341Z,1.80
2023-03-03T10:48:53.431Z,2.00
2023-03-03T10:52:17.124Z,2.00
2023-03-03T10:55:23.237Z,2.00
2023-03-03T10:58:25.828Z,2.00
2023-03-03T11:01:24.684Z,2.00
2023-03-03T11:04:37.911Z,2.10
2023-03-03T11:07:40.489Z,2.00
2023-03-03T11:10:48.590Z,2.10
2023-03-03T11:13:48.058Z,2.20
2023-03-03T11:16:44.628Z,2.10
2023-03-03T11:20:10.263Z,2.40
2023-03-03T11:23:41.768Z,2.20
2023-03-03T11:26:22.956Z,2.10
2023-03-03T11:29:08.357Z,2.20
2023-03-03T11:32:18.686Z,2.10
2023-03-03T11:35:08.093Z,2.20
2023-03-03T11:38:05.144Z,2.30
2023-03-03T11:41:04.986Z,2.40
2023-03-03T11:43:49.205Z,2.30
2023-03-03T11:46:27.449Z,2.40
2023-03-03T11:49:15.797Z,2.50
2023-03-03T11:52:24.301Z,2.60
2023-03-03T11:55:27.439Z,2.50
2023-03-03T11:58:22.790Z,2.40
2023-03-03T12:01:13.300Z,2.40
2023-03-03T12:04:18.974Z,2.40
2023-03-03T12:07:20.730Z,2.60
2023-03-03T12:10:27.662Z,2.70
2023-03-03T12:13:27.767Z,2.80
2023-03-03T12:16:16.691Z,2.80
2023-03-03T12:23:07.651Z,2.80
2023-03-03T12:26:36.355Z,2.80
2023-03-03T12:29:42.050Z,2.80
2023-03-03T12:32:41.919Z,2.90
2023-03-03T12:36:00.336Z,2.90
2023-03-03T12:39:51.067Z,3.00
2023-03-03T12:43:45.284Z,3.20
2023-03-03T12:46:33.079Z,3.10
2023-03-03T12:49:00.311Z,3.30
2023-03-03T12:52:26.115Z,3.20
2023-03-03T12:55:58.144Z,3.00
2023-03-03T12:59:43.278Z,3.10
2023-03-03T13:04:05.803Z,3.30
2023-03-03T13:07:07.755Z,3.30
2023-03-03T13:10:15.776Z,3.30
2023-03-03T13:13:14.537Z,3.10
2023-03-03T13:16:06.591Z,3.20
2023-03-03T13:19:00.512Z,3.00
2023-03-03T13:21:47.078Z,3.20
2023-03-03T13:24:43.256Z,3.20
2023-03-03T13:27:23.151Z,3.30
2023-03-03T13:30:11.597Z,3.40
2023-03-03T13:32:59.933Z,3.20
2023-03-03T13:37:08.885Z,3.30
2023-03-03T13:41:23.872Z,3.20
2023-03-03T13:49:29.429Z,3.20
2023-03-03T13:57:12.115Z,3.30
2023-03-03T14:00:33.653Z,3.50
2023-03-03T14:03:47.304Z,3.90
2023-03-03T14:06:34.169Z,3.90
2023-03-03T14:13:32.182Z,3.90
2023-03-03T14:16:14.866Z,3.80
2023-03-03T14:19:28.469Z,4.00
2023-03-03T14:22:30.604Z,3.80
2023-03-03T14:25:26.838Z,3.90
2023-03-03T14:28:29.612Z,3.90
2023-03-03T14:31:09.623Z,3.90
2023-03-03T14:33:36.827Z,3.80
2023-03-03T14:36:12.938Z,3.80
2023-03-03T14:38:51.785Z,3.80
2023-03-03T14:41:36.173Z,4.10
2023-03-03T14:45:01.380Z,4.20
2023-03-03T14:47:30.789Z,4.00
2023-03-03T14:50:52.101Z,4.10
2023-03-03T14:53:18.972Z,4.20
2023-03-03T14:55:54.098Z,4.10
2023-03-03T14:58:41.339Z,4.20
2023-03-03T15:01:24.508Z,4.20
2023-03-03T15:04:25.684Z,4.00
2023-03-03T15:06:55.594Z,4.10
2023-03-03T15:09:45.592Z,4.20
2023-03-03T15:12:35.039Z,4.30
2023-03-03T15:15:05.389Z,4.30
2023-03-03T15:17:43.379Z,4.30
2023-03-03T15:20:53.336Z,4.40
2023-03-03T15:24:17.485Z,4.50
2023-03-03T15:27:14.093Z,4.50
2023-03-03T15:30:02.781Z,4.60
2023-03-03T15:32:59.528Z,4.70
2023-03-03T15:36:23.422Z,4.80
2023-03-03T15:39:19.773Z,4.90
2023-03-03T15:42:10.465Z,4.90
2023-03-03T15:45:15.944Z,4.80
2023-03-03T15:48:43.384Z,5.00
2023-03-03T15:52:03.135Z,4.90
2023-03-03T15:58:10.835Z,5.00
2023-03-03T16:02:14.079Z,5.00
2023-03-03T16:05:55.375Z,5.00
2023-03-03T16:08:41.048Z,5.10
2023-03-03T16:11:47.189Z,5.10
2023-03-03T16:14:47.163Z,5.30
2023-03-03T16:17:52.789Z,5.20
2023-03-03T16:20:42.498Z,5.20
2023-03-03T16:23:29.181Z,5.30
2023-03-03T16:26:30.609Z,5.20
2023-03-03T16:29:37.772Z,5.10
2023-03-03T16:32:45.179Z,4.60
2023-03-03T16:35:38.066Z,4.60
2023-03-03T16:38:24.110Z,4.40
2023-03-03T16:41:07.212Z,4.50
2023-03-03T16:43:57.313Z,4.40
2023-03-03T16:46:48.344Z,4.20
2023-03-03T16:49:42.466Z,4.10
2023-03-03T16:52:40.701Z,4.10
2023-03-03T16:55:42.615Z,4.10
2023-03-03T17:08:25.402Z,4.00
2023-03-03T17:15:30.381Z,4.00
2023-03-03T17:18:47.998Z,4.10
2023-03-03T17:21:49.788Z,4.00
2023-03-03T17:24:45.051Z,4.00
2023-03-03T17:27:51.930Z,3.90
2023-03-03T17:31:18.535Z,4.10
2023-03-03T17:34:52.864Z,3.90
2023-03-03T17:39:06.331Z,3.90
2023-03-03T17:42:22.280Z,4.00
2023-03-03T17:45:18.960Z,4.40
2023-03-03T17:48:31.672Z,4.70
2023-03-03T17:51:20.311Z,4.70
2023-03-03T17:54:23.414Z,4.70
2023-03-03T17:57:22.033Z,4.60
2023-03-03T18:00:41.766Z,4.50
2023-03-03T18:04:07.339Z,4.70
2023-03-03T18:07:36.923Z,4.70
2023-03-03T18:11:16.338Z,4.70
2023-03-03T18:14:18.381Z,4.60
2023-03-03T18:17:24.840Z,4.60
2023-03-03T18:20:36.068Z,4.70
2023-03-03T18:23:30.480Z,4.80
2023-03-03T18:26:56.346Z,4.80
2023-03-03T18:29:34.927Z,4.80
2023-03-03T18:32:33.880Z,4.60
2023-03-03T18:35:41.831Z,4.80
2023-03-03T18:38:59.329Z,4.60
2023-03-03T18:41:33.913Z,4.40
2023-03-03T18:44:32.110Z,4.30
2023-03-03T18:55:09.470Z,4.50
2023-03-03T18:58:47.489Z,4.50
2023-03-03T19:01:36.092Z,4.40
2023-03-03T19:04:34.961Z,4.30
2023-03-03T19:07:45.417Z,4.40
2023-03-03T19:10:21.892Z,4.30
2023-03-03T19:13:01.793Z,4.20
2023-03-03T19:15:34.560Z,4.30
2023-03-03T19:18:28.056Z,4.30
2023-03-03T19:21:07.357Z,4.40
2023-03-03T19:23:59.647Z,4.30
2023-03-03T19:26:29.774Z,4.50
2023-03-03T19:29:45.257Z,4.50
2023-03-03T19:32:57.377Z,4.40
2023-03-03T19:35:56.242Z,4.50
2023-03-03T19:38:56.283Z,4.40
2023-03-03T19:42:05.844Z,4.40
2023-03-03T19:45:05.848Z,4.30
2023-03-03T19:48:51.871Z,4.30
2023-03-03T19:52:21.144Z,4.40
2023-03-03T19:55:44.564Z,4.50
2023-03-03T19:58:30.498Z,4.40
2023-03-03T20:01:50.468Z,4.40
2023-03-03T20:05:20.202Z,4.30
2023-03-03T20:08:40.912Z,4.40
2023-03-03T20:12:15.282Z,4.30
2023-03-03T20:15:18.937Z,4.40
2023-03-03T20:18:47.961Z,4.30
2023-03-03T20:21:52.885Z,4.30
2023-03-03T20:24:34.804Z,4.30
2023-03-03T20:27:23.581Z,4.30
2023-03-03T20:30:14.600Z,4.30
2023-03-03T20:33:36.746Z,4.30
2023-03-03T20:36:30.981Z,4.40
2023-03-03T20:40:00.693Z,4.30
2023-03-03T20:43:27.879Z,4.30
2023-03-03T20:46:33.188Z,4.30
2023-03-03T20:49:21.165Z,4.30
2023-03-03T20:52:08.056Z,4.30
2023-03-03T20:55:06.295Z,4.30
2023-03-03T20:58:18.217Z,4.20
2023-03-03T21:01:14.667Z,4.20
2023-03-03T21:03:45.738Z,4.20
2023-03-03T21:06:19.036Z,4.20
2023-03-03T21:08:54.860Z,4.10
2023-03-03T21:11:31.677Z,4.10
2023-03-03T21:14:17.306Z,4.00
2023-03-03T21:16:46.810Z,3.90
2023-03-03T21:19:31.146Z,4.00
2023-03-03T21:22:04.886Z,4.00
2023-03-03T21:25:01.216Z,4.00
2023-03-03T21:27:35.089Z,4.00
2023-03-03T21:30:13.244Z,4.10
2023-03-03T21:32:49.400Z,4.10
2023-03-03T21:35:22.556Z,4.20
2023-03-03T21:37:51.676Z,4.10
2023-03-03T21:40:29.218Z,4.10
2023-03-03T21:42:59.968Z,4.10
2023-03-03T21:45:27.704Z,4.00
2023-03-03T21:47:59.297Z,4.00
2023-03-03T21:50:31.336Z,4.10
2023-03-03T21:52:59.161Z,4.00
2023-03-03T21:55:26.846Z,4.00
2023-03-03T21:57:53.901Z,3.90
2023-03-03T22:00:21.624Z,4.00
2023-03-03T22:02:48.594Z,4.00
2023-03-03T22:05:15.626Z,3.90
2023-03-03T22:07:42.719Z,4.00
2023-03-03T22:10:11.085Z,4.00
2023-03-03T22:12:38.037Z,3.90
2023-03-03T22:15:06.029Z,3.90
2023-03-03T22:17:32.918Z,3.80
2023-03-03T22:19:59.821Z,3.90
2023-03-03T22:22:26.759Z,4.00
2023-03-03T22:24:53.774Z,4.00
2023-03-03T22:27:20.718Z,3.90
2023-03-03T22:29:51.019Z,3.90
2023-03-03T22:32:18.012Z,4.00
2023-03-03T22:34:45.218Z,3.90
2023-03-03T22:37:12.348Z,3.90
2023-03-03T22:39:39.279Z,3.90
2023-03-03T22:42:06.280Z,4.00
2023-03-03T22:44:33.409Z,3.90
2023-03-03T22:47:00.874Z,3.80
2023-03-03T22:49:27.796Z,3.80
2023-03-03T22:51:56.126Z,3.80
2023-03-03T22:54:23.276Z,3.70
2023-03-03T22:56:50.148Z,3.60
2023-03-03T22:59:17.547Z,3.60
2023-03-03T23:01:44.656Z,3.60
2023-03-03T23:04:11.578Z,3.40
2023-03-03T23:06:38.462Z,3.50
2023-03-03T23:09:05.480Z,3.50
2023-03-03T23:11:32.372Z,3.50
2023-03-03T23:13:59.252Z,3.50
2023-03-03T23:16:26.374Z,3.40
2023-03-03T23:18:53.285Z,3.40
2023-03-03T23:21:20.249Z,3.30
2023-03-03T23:23:47.465Z,3.20
2023-03-03T23:26:14.487Z,3.10
2023-03-03T23:28:41.457Z,3.10
2023-03-03T23:31:08.488Z,3.10
2023-03-03T23:33:35.422Z,3.00
2023-03-03T23:36:02.488Z,3.10
2023-03-03T23:38:29.473Z,3.10
2023-03-03T23:40:56.577Z,3.20
2023-03-03T23:43:23.549Z,3.20
2023-03-03T23:45:50.615Z,3.00
2023-03-03T23:48:17.986Z,3.00
2023-03-03T23:50:44.877Z,3.00
2023-03-03T23:53:11.797Z,2.90
2023-03-03T23:55:39.107Z,2.80
2023-03-03T23:58:06.126Z,2.90
